map of GOM home
GOM - Airport
Location
City:  Goma, Nord-Kivu (North Kivu), Democratic Republic of Congo (Zaire)
Name:Goma International Airport
ICAO:FZNA
IATA:GOM

Details
Type:Airport (Aerodrome, Airfield)
Use:Public/Civil, International (customs port of entry)
Latitude:140'15"S (-1.670813)
Longitude:2914'18"E (29.238464)
Datum:WGS 1984
Elevation:5089 ft (1551 m)
Variation:1.38E (WMM2015 magnetic declination)
0.08 annual change
Runways:1
Longest:6545 × 148 ft (1995 × 45 m), paved

Time
Time Zone:UTC+2
Local Time:

Weather
METAR:FZNA 150700Z 18004KT 9000 SCT018TCU 23/17 Q1024 NOSIG

Related Locations
Nearby:
Farthest:CXI: 11995 mi / 19304 km
Christmas Island (Kiritimati) [Cassidy Intl], L, KI

Find:

   beyond  
but within

Other Information
Maps:
NOTAMs:
Links:
Sources:

  
  • flag of Democratic Republic of Congo (Zaire)
  

Sectional Chart

Flight Planning
at skyvector.com

Satellite Image

Google Maps Satellite view

 

Copyright © 2004-2018 Karl L. Swartz. All rights reserved.
The Great Circle Mapper name and logo are trademarks of the Great Circle Mapper.
All other trademarks mentioned herein belong to their respective owners.
Please see credits for attibutions and further copyright information.

  Follow gcmap on Facebook Follow gcmap on Twitter Follow gcmap on Google+ GCmap on LinkedIn

hCard Microformat

Geo Microformat